Time;durP1;ratioP1;P1;durP2;ratioP2;P2;SDS_P1;SDS_P2;PMS_P1;PMS_P2;Temp;Humidity;BMP_temperature;BMP_pressure;BME280_temperature;BME280_humidity;BME280_pressure;Samples;Min_cycle;Max_cycle;Signal;HPM_P1;HPM_P2
2022/09/26 00:01:26;;;;;;;4.25;2.47;;;;;;;10.09;80.94;100891.97;5052566;28;20351;-77
2022/09/26 00:03:54;;;;;;;5.03;2.53;;;;;;;10.07;80.91;100891.19;5051125;28;20507;-77
2022/09/26 00:06:20;;;;;;;5.10;2.45;;;;;;;10.06;80.78;100884.25;5040943;28;20060;-77
2022/09/26 00:08:47;;;;;;;4.80;2.83;;;;;;;10.06;81.01;100884.25;5045256;28;20027;-77
2022/09/26 00:11:16;;;;;;;4.25;2.45;;;;;;;10.03;81.01;100874.78;5044718;28;20033;-77
2022/09/26 00:13:41;;;;;;;4.00;2.63;;;;;;;10.04;80.97;100870.44;5040257;28;20028;-77
2022/09/26 00:16:09;;;;;;;6.75;2.58;;;;;;;10.05;81.21;100872.16;5049277;28;20116;-77
2022/09/26 00:18:35;;;;;;;4.88;2.70;;;;;;;10.04;81.33;100870.44;5041845;28;20025;-78
2022/09/26 00:21:05;;;;;;;4.32;2.58;;;;;;;10.05;81.31;100866.09;5050697;28;20435;-77
2022/09/26 00:23:31;;;;;;;3.60;2.58;;;;;;;10.07;81.25;100859.13;5040479;28;20384;-78
2022/09/26 00:25:59;;;;;;;4.15;2.80;;;;;;;10.08;81.39;100851.25;5039943;28;20025;-78
2022/09/26 00:28:25;;;;;;;3.30;2.50;;;;;;;10.09;81.36;100847.78;5044260;28;20464;-77
2022/09/26 00:30:50;;;;;;;4.13;2.50;;;;;;;10.10;81.16;100846.88;5050151;28;20143;-78
2022/09/26 00:33:15;;;;;;;4.30;2.65;;;;;;;10.11;81.22;100840.81;5043626;28;20029;-77
2022/09/26 00:35:51;;;;;;;5.13;2.53;;;;;;;10.12;81.29;100834.72;5040833;28;20061;-77
2022/09/26 00:38:17;;;;;;;3.83;2.30;;;;;;;10.15;81.44;100837.25;5038366;28;20029;-77
2022/09/26 00:40:42;;;;;;;3.63;2.30;;;;;;;10.16;81.39;100832.91;5044944;28;20039;-77
2022/09/26 00:43:31;;;;;;;4.18;2.42;;;;;;;10.17;81.39;100834.59;5038363;28;20547;-77
2022/09/26 00:46:01;;;;;;;4.05;2.50;;;;;;;10.17;81.32;100827.66;5047973;28;20021;-77
2022/09/26 00:48:28;;;;;;;4.18;2.40;;;;;;;10.19;81.27;100817.22;5038872;28;20033;-77
2022/09/26 00:50:53;;;;;;;3.38;2.50;;;;;;;10.22;81.33;100819.75;5032893;28;20112;-77
2022/09/26 00:53:26;;;;;;;4.10;2.33;;;;;;;10.23;81.23;100812.81;5041066;28;20109;-77
2022/09/26 00:55:56;;;;;;;5.13;2.35;;;;;;;10.23;81.49;100812.81;5049380;28;20032;-78
2022/09/26 00:58:37;;;;;;;6.60;2.50;;;;;;;10.24;81.25;100804.13;5047440;28;20033;-77
2022/09/26 01:01:02;;;;;;;4.35;2.20;;;;;;;10.25;81.19;100804.06;5043050;28;20573;-77
2022/09/26 01:03:30;;;;;;;3.35;2.45;;;;;;;10.25;81.39;100795.41;5043761;28;20108;-77
2022/09/26 01:05:56;;;;;;;4.20;2.38;;;;;;;10.26;81.37;100789.31;5033967;28;20087;-77
2022/09/26 01:08:31;;;;;;;4.60;2.47;;;;;;;10.25;81.56;100791.06;5034450;28;20545;-78
2022/09/26 01:10:56;;;;;;;4.82;2.40;;;;;;;10.25;81.36;100785.88;5046647;28;20435;-77
2022/09/26 01:13:22;;;;;;;4.15;2.47;;;;;;;10.26;81.58;100784.13;5054624;28;20484;-77
2022/09/26 01:15:47;;;;;;;4.72;2.55;;;;;;;10.26;81.45;100778.91;5055339;28;20056;-77
2022/09/26 01:18:12;;;;;;;4.25;2.15;;;;;;;10.25;81.23;100772.00;5055417;28;20067;-78
2022/09/26 01:21:06;;;;;;;5.53;2.75;;;;;;;10.24;81.32;100765.13;5042042;28;20040;-77
2022/09/26 01:23:50;;;;;;;5.10;2.35;;;;;;;10.23;81.05;100751.25;5037336;28;20084;-77
2022/09/26 01:26:18;;;;;;;6.80;2.70;;;;;;;10.23;81.45;100745.22;5055474;28;20036;-77
2022/09/26 01:29:14;;;;;;;3.50;2.25;;;;;;;10.24;80.93;100739.97;5053992;28;20025;-77
2022/09/26 01:35:02;;;;;;;3.70;2.33;;;;;;;10.28;80.96;100735.53;5075414;28;20044;-77
2022/09/26 01:38:13;;;;;;;6.78;2.65;;;;;;;10.29;80.88;100724.25;5057779;28;20040;-77
2022/09/26 01:41:04;;;;;;;4.85;2.08;;;;;;;10.29;80.77;100716.44;5028848;28;20036;-77
2022/09/26 01:44:04;;;;;;;3.67;2.00;;;;;;;10.31;80.45;100705.13;5032655;28;20055;-77
2022/09/26 01:46:46;;;;;;;3.88;2.00;;;;;;;10.31;80.25;100699.06;5041279;28;20318;-77
2022/09/26 01:49:21;;;;;;;3.55;1.75;;;;;;;10.31;80.22;100696.44;5042208;28;20025;-77
2022/09/26 01:51:56;;;;;;;4.20;2.10;;;;;;;10.31;80.28;100692.13;5053257;28;20040;-77
2022/09/26 01:54:26;;;;;;;4.15;2.13;;;;;;;10.31;79.73;100686.91;5034938;28;20064;-77
2022/09/26 01:56:57;;;;;;;3.90;1.80;;;;;;;10.32;79.35;100677.34;5042951;28;20029;-77
2022/09/26 01:59:33;;;;;;;4.10;1.70;;;;;;;10.33;79.75;100673.88;5044885;28;20030;-77
2022/09/26 02:02:05;;;;;;;2.72;1.63;;;;;;;10.32;79.63;100672.16;5039112;28;20029;-77
2022/09/26 02:04:36;;;;;;;2.97;1.70;;;;;;;10.34;79.35;100662.56;5048087;28;20155;-77
2022/09/26 02:07:17;;;;;;;3.25;1.70;;;;;;;10.33;79.17;100653.91;5045167;28;20069;-77
2022/09/26 02:09:58;;;;;;;6.88;2.20;;;;;;;10.33;79.18;100647.84;5042424;28;20021;-77
2022/09/26 02:12:32;;;;;;;3.30;1.63;;;;;;;10.32;79.11;100648.75;5041844;28;20032;-77
2022/09/26 02:15:01;;;;;;;4.32;1.65;;;;;;;10.33;79.12;100647.84;5034813;28;20032;-77
2022/09/26 02:17:35;;;;;;;3.20;1.70;;;;;;;10.32;78.79;100640.94;5051822;28;20495;-77
2022/09/26 02:20:19;;;;;;;3.78;1.75;;;;;;;10.32;78.75;100640.94;5052071;28;20020;-77
2022/09/26 02:22:45;;;;;;;2.92;1.48;;;;;;;10.32;78.27;100633.16;5034553;28;20068;-77
2022/09/26 02:25:10;;;;;;;4.22;1.80;;;;;;;10.31;78.30;100627.13;5046303;28;20035;-77
2022/09/26 02:27:36;;;;;;;5.07;1.70;;;;;;;10.32;78.12;100623.63;5053402;28;20193;-77
2022/09/26 02:30:02;;;;;;;2.95;1.55;;;;;;;10.32;77.73;100617.56;5047379;28;20453;-77
2022/09/26 02:32:30;;;;;;;3.33;1.75;;;;;;;10.31;78.13;100614.13;5040036;28;20041;-77
2022/09/26 02:34:56;;;;;;;4.20;1.80;;;;;;;10.31;78.14;100610.66;5035726;28;20061;-77
2022/09/26 02:37:21;;;;;;;5.32;1.70;;;;;;;10.31;78.06;100602.84;5047875;28;20036;-77
2022/09/26 02:39:49;;;;;;;6.13;1.70;;;;;;;10.29;78.15;100597.69;5052540;28;20033;-77
2022/09/26 02:42:16;;;;;;;3.08;1.75;;;;;;;10.29;78.12;100599.44;5042835;28;20098;-77
2022/09/26 02:44:54;;;;;;;3.33;1.85;;;;;;;10.28;78.16;100595.13;5034053;28;20033;-77
2022/09/26 02:47:25;;;;;;;4.90;2.35;;;;;;;10.29;78.38;100591.63;5048723;28;20029;-77
2022/09/26 02:50:10;;;;;;;3.95;1.88;;;;;;;10.29;78.35;100591.63;5052189;28;20025;-77
2022/09/26 02:52:41;;;;;;;3.50;1.73;;;;;;;10.29;78.36;100583.84;5047180;28;20237;-77
2022/09/26 02:55:11;;;;;;;3.92;2.00;;;;;;;10.28;78.69;100582.13;5038342;28;20035;-77
2022/09/26 02:57:44;;;;;;;5.00;1.95;;;;;;;10.28;78.40;100583.00;5041153;28;20485;-77
2022/09/26 03:00:22;;;;;;;4.53;2.35;;;;;;;10.28;78.47;100572.59;5039497;28;20099;-77
2022/09/26 03:02:55;;;;;;;3.50;1.83;;;;;;;10.27;78.43;100570.88;5045313;28;20068;-77
2022/09/26 03:05:24;;;;;;;5.43;2.50;;;;;;;10.26;78.33;100574.38;5051037;28;20025;-77
2022/09/26 03:08:08;;;;;;;3.05;1.80;;;;;;;10.27;78.35;100563.09;5046495;28;20515;-77
2022/09/26 03:10:35;;;;;;;3.72;1.75;;;;;;;10.26;78.11;100563.13;5039251;28;20029;-77
2022/09/26 03:13:05;;;;;;;5.25;1.65;;;;;;;10.26;78.21;100561.38;5042064;28;20480;-77
2022/09/26 03:15:33;;;;;;;3.88;2.13;;;;;;;10.29;77.75;100560.44;5050736;28;20042;-77
2022/09/26 03:18:00;;;;;;;4.65;1.67;;;;;;;10.29;77.91;100547.44;5052479;28;20025;-77
2022/09/26 03:20:26;;;;;;;3.95;2.10;;;;;;;10.29;77.42;100547.44;5040572;28;20040;-77
2022/09/26 03:22:51;;;;;;;3.53;1.63;;;;;;;10.29;77.47;100540.50;5034131;28;20018;-78
2022/09/26 03:25:23;;;;;;;3.75;1.70;;;;;;;10.30;77.59;100539.59;5017781;28;20464;-77
2022/09/26 03:27:50;;;;;;;5.13;1.67;;;;;;;10.31;77.57;100543.03;5053068;28;20032;-77
2022/09/26 03:30:17;;;;;;;5.18;1.55;;;;;;;10.31;77.31;100530.03;5043278;28;20377;-77
2022/09/26 03:32:43;;;;;;;6.47;1.67;;;;;;;10.31;77.17;100530.03;5034540;28;20025;-77
2022/09/26 03:35:08;;;;;;;2.65;1.52;;;;;;;10.29;77.39;100524.03;5043594;28;20108;-77
2022/09/26 03:37:36;;;;;;;4.22;1.55;;;;;;;10.28;77.27;100524.91;5050734;28;20036;-77
2022/09/26 03:40:07;;;;;;;3.25;1.35;;;;;;;10.26;77.31;100508.50;5025724;28;20030;-77
2022/09/26 03:42:33;;;;;;;4.75;1.60;;;;;;;10.25;76.97;100515.47;5032683;28;20116;-77
2022/09/26 03:45:01;;;;;;;5.22;1.80;;;;;;;10.26;76.87;100505.91;5048761;28;20120;-77
2022/09/26 03:47:27;;;;;;;2.45;1.30;;;;;;;10.26;76.83;100500.72;5050614;28;20503;-77
2022/09/26 03:49:53;;;;;;;4.55;1.35;;;;;;;10.25;76.71;100499.88;5032336;28;20021;-77
2022/09/26 03:52:19;;;;;;;3.85;1.38;;;;;;;10.25;76.73;100492.06;5033006;28;20240;-77
2022/09/26 03:54:44;;;;;;;4.30;1.30;;;;;;;10.25;76.40;100492.06;5043708;28;20510;-77
2022/09/26 03:57:16;;;;;;;3.63;1.20;;;;;;;10.26;76.79;100495.50;5046772;28;20036;-77
2022/09/26 03:59:42;;;;;;;2.83;1.23;;;;;;;10.25;76.87;100486.00;5034749;28;20063;-77
2022/09/26 04:02:08;;;;;;;2.30;1.23;;;;;;;10.26;76.47;100479.91;5047487;28;20061;-77
2022/09/26 04:04:34;;;;;;;3.05;1.27;;;;;;;10.24;76.53;100472.19;5042035;28;20423;-77
2022/09/26 04:06:59;;;;;;;3.15;1.20;;;;;;;10.25;76.23;100467.81;5049962;28;20045;-77
2022/09/26 04:09:25;;;;;;;4.20;1.20;;;;;;;10.25;76.19;100467.81;5043816;28;20037;-77
2022/09/26 04:11:52;;;;;;;1.48;1.02;;;;;;;10.25;76.08;100462.63;5032383;28;20031;-77
2022/09/26 04:14:18;;;;;;;3.88;1.42;;;;;;;10.25;76.29;100462.63;5038387;28;20036;-77
2022/09/26 04:16:44;;;;;;;2.78;1.40;;;;;;;10.24;77.16;100461.78;5039614;28;20029;-77
2022/09/26 04:19:11;;;;;;;3.15;1.30;;;;;;;10.24;76.48;100455.75;5042144;28;20393;-77
2022/09/26 04:21:39;;;;;;;3.95;1.20;;;;;;;10.23;76.51;100447.06;5051689;28;20059;-77
2022/09/26 04:24:06;;;;;;;5.00;1.20;;;;;;;10.22;76.32;100439.34;5044272;28;20511;-77
2022/09/26 04:26:31;;;;;;;5.53;1.33;;;;;;;10.21;76.63;100435.03;5043023;28;20167;-77
2022/09/26 04:28:57;;;;;;;2.72;1.25;;;;;;;10.20;76.66;100428.13;5043878;28;20104;-77
2022/09/26 04:31:23;;;;;;;2.60;1.20;;;;;;;10.17;76.45;100413.47;5033708;28;20036;-77
2022/09/26 04:33:49;;;;;;;4.30;1.40;;;;;;;10.17;76.47;100410.84;5034484;28;20453;-78
2022/09/26 04:36:16;;;;;;;2.53;1.20;;;;;;;10.16;76.67;100402.22;5036749;28;20021;-77
2022/09/26 04:38:42;;;;;;;2.33;1.10;;;;;;;10.16;76.82;100406.59;5035785;28;20496;-77
2022/09/26 04:41:10;;;;;;;3.08;1.35;;;;;;;10.13;76.65;100402.31;5049230;28;20036;-77
2022/09/26 04:43:35;;;;;;;2.63;1.25;;;;;;;10.14;77.13;100398.81;5036984;28;20032;-77
2022/09/26 04:46:05;;;;;;;2.47;1.23;;;;;;;10.13;77.16;100376.31;5041214;28;20029;-77
2022/09/26 04:48:30;;;;;;;3.45;1.40;;;;;;;10.12;76.78;100376.38;5044025;28;20026;-77
2022/09/26 04:50:55;;;;;;;2.60;1.30;;;;;;;10.12;77.15;100377.22;5043385;28;20032;-77
2022/09/26 04:53:22;;;;;;;4.78;1.60;;;;;;;10.12;76.98;100377.22;5051412;28;20032;-77
2022/09/26 04:55:48;;;;;;;3.15;1.50;;;;;;;10.11;77.15;100365.13;5034782;28;20107;-77
2022/09/26 04:58:15;;;;;;;2.90;1.50;;;;;;;10.09;77.62;100359.13;5042334;28;20018;-77
2022/09/26 05:00:46;;;;;;;4.47;1.50;;;;;;;10.07;77.28;100347.94;5043732;28;20033;-77
2022/09/26 05:03:13;;;;;;;4.65;1.30;;;;;;;10.06;77.57;100333.25;5049328;28;20021;-77
2022/09/26 05:05:39;;;;;;;3.22;1.25;;;;;;;10.07;77.57;100323.69;5051099;28;20017;-77
2022/09/26 05:08:05;;;;;;;2.22;1.42;;;;;;;10.04;77.76;100316.84;5048643;28;20090;-77
2022/09/26 05:10:30;;;;;;;3.92;1.40;;;;;;;10.03;77.51;100328.13;5036337;28;20468;-76
2022/09/26 05:13:02;;;;;;;2.70;1.30;;;;;;;10.03;77.71;100328.13;5047798;28;20484;-77
2022/09/26 05:15:27;;;;;;;3.20;1.50;;;;;;;10.03;78.01;100325.53;5055274;28;20032;-77
2022/09/26 05:17:59;;;;;;;3.05;1.52;;;;;;;10.03;77.77;100326.38;5038532;28;20026;-77
2022/09/26 05:20:28;;;;;;;4.88;1.75;;;;;;;10.03;77.92;100317.75;5042786;28;20024;-77
2022/09/26 05:22:57;;;;;;;3.30;1.60;;;;;;;10.01;78.21;100309.16;5041714;28;20028;-77
2022/09/26 05:28:06;;;;;;;5.10;1.90;;;;;;;9.99;78.60;100300.53;5053821;28;20147;-77
2022/09/26 05:30:33;;;;;;;2.67;1.50;;;;;;;9.99;78.47;100284.94;5035530;28;20040;-77
2022/09/26 05:32:59;;;;;;;3.97;1.90;;;;;;;9.97;79.13;100278.94;5053596;28;20127;-77
2022/09/26 05:35:24;;;;;;;6.10;1.77;;;;;;;9.95;79.28;100272.94;5037528;28;20036;-77
2022/09/26 05:38:00;;;;;;;4.00;1.65;;;;;;;9.94;79.33;100289.44;5035782;28;20030;-77
2022/09/26 05:43:10;;;;;;;3.80;1.70;;;;;;;9.93;79.45;100295.53;5056752;28;20047;-77
2022/09/26 05:45:36;;;;;;;4.65;1.60;;;;;;;9.92;79.80;100289.50;5075103;28;20021;-77
2022/09/26 05:48:02;;;;;;;4.53;1.98;;;;;;;9.93;79.62;100287.72;5073309;28;20024;-77
2022/09/26 05:50:27;;;;;;;4.63;1.98;;;;;;;9.92;80.88;100278.25;5048272;28;20373;-77
2022/09/26 05:52:59;;;;;;;3.28;1.70;;;;;;;9.91;80.18;100277.41;5044702;28;20049;-77
2022/09/26 05:55:25;;;;;;;3.75;2.10;;;;;;;9.90;80.03;100272.28;5054924;28;20036;-77
2022/09/26 05:57:57;;;;;;;3.58;1.85;;;;;;;9.90;80.20;100269.66;5048467;28;20036;-77
2022/09/26 06:00:26;;;;;;;4.30;1.85;;;;;;;9.87;79.90;100271.47;5039296;28;20044;-77
2022/09/26 06:03:00;;;;;;;4.15;1.77;;;;;;;9.89;79.99;100274.00;5047463;28;20079;-77
2022/09/26 06:05:25;;;;;;;5.75;1.98;;;;;;;9.90;79.97;100269.66;5025666;28;20028;-77
2022/09/26 06:07:51;;;;;;;6.18;2.00;;;;;;;9.88;80.10;100261.91;5053711;28;20408;-77
2022/09/26 06:10:18;;;;;;;5.40;1.90;;;;;;;9.90;79.75;100259.28;5037215;28;20122;-77
2022/09/26 06:12:44;;;;;;;5.53;1.80;;;;;;;9.90;79.66;100252.31;5044071;28;20652;-77
2022/09/26 06:15:09;;;;;;;5.63;2.17;;;;;;;9.90;80.41;100241.09;5040645;28;20624;-77
2022/09/26 06:17:35;;;;;;;4.30;2.00;;;;;;;9.86;80.34;100235.13;5041115;28;20036;-77
2022/09/26 06:20:01;;;;;;;8.57;2.20;;;;;;;9.87;80.94;100229.91;5047380;28;20029;-77
2022/09/26 06:22:27;;;;;;;5.75;2.10;;;;;;;9.86;81.01;100222.13;5042322;28;20396;-77
2022/09/26 06:24:53;;;;;;;5.18;2.08;;;;;;;9.85;81.18;100216.09;5037248;28;20032;-77
2022/09/26 06:27:19;;;;;;;5.35;1.85;;;;;;;9.85;81.06;100216.09;5048921;28;20026;-77
2022/09/26 06:29:44;;;;;;;4.95;2.05;;;;;;;9.85;80.90;100210.91;5036954;28;20087;-77
2022/09/26 06:32:09;;;;;;;7.85;1.98;;;;;;;9.86;80.78;100202.22;5043349;28;20107;-77
2022/09/26 06:34:35;;;;;;;7.03;1.98;;;;;;;9.87;81.13;100193.53;5045498;28;20033;-77
2022/09/26 06:37:00;;;;;;;5.78;1.92;;;;;;;9.86;81.11;100186.63;5048608;28;20033;-78
2022/09/26 06:39:34;;;;;;;6.22;2.00;;;;;;;9.86;81.31;100178.84;5037016;28;20094;-77
2022/09/26 06:42:00;;;;;;;4.30;1.83;;;;;;;9.87;81.22;100175.34;5037166;28;20480;-77
2022/09/26 06:44:25;;;;;;;4.78;2.00;;;;;;;9.88;81.33;100168.38;5040911;28;20476;-77
2022/09/26 06:46:51;;;;;;;5.15;1.73;;;;;;;9.90;81.15;100160.53;5036314;28;20025;-77
2022/09/26 06:49:16;;;;;;;6.45;2.10;;;;;;;9.87;81.04;100153.69;5049538;28;20435;-77
2022/09/26 06:51:41;;;;;;;7.18;2.00;;;;;;;9.91;81.36;100157.00;5048949;28;20037;-77
2022/09/26 06:54:06;;;;;;;5.57;1.83;;;;;;;9.92;81.16;100148.31;5050611;28;20497;-77
2022/09/26 06:56:32;;;;;;;3.88;2.00;;;;;;;9.94;81.34;100139.59;5059004;28;20104;-77
2022/09/26 06:58:57;;;;;;;6.57;2.00;;;;;;;9.94;80.76;100130.94;5052877;28;20395;-77
2022/09/26 07:01:22;;;;;;;5.03;2.00;;;;;;;9.96;81.02;100130.00;5048177;28;20025;-77
2022/09/26 07:03:48;;;;;;;4.07;1.63;;;;;;;9.99;81.28;100126.44;5050909;28;20359;-77
2022/09/26 07:06:13;;;;;;;4.70;1.80;;;;;;;10.00;80.67;100121.16;5046148;28;20025;-77
2022/09/26 07:08:39;;;;;;;5.05;1.80;;;;;;;10.01;80.60;100111.66;5043657;28;20389;-77
2022/09/26 07:11:04;;;;;;;4.88;1.77;;;;;;;10.04;80.48;100106.34;5034809;28;20484;-77
2022/09/26 07:13:30;;;;;;;9.40;2.45;;;;;;;10.07;80.74;100102.78;5050219;28;20036;-77
2022/09/26 07:15:59;;;;;;;5.47;2.10;;;;;;;10.10;80.28;100106.09;5038531;28;20051;-77
2022/09/26 07:18:25;;;;;;;5.60;1.88;;;;;;;10.11;80.49;100109.56;5046167;28;20033;-77
2022/09/26 07:20:52;;;;;;;4.80;1.55;;;;;;;10.12;80.06;100099.09;5036576;28;20036;-77
2022/09/26 07:23:17;;;;;;;5.15;1.83;;;;;;;10.13;79.84;100103.41;5034172;28;20104;-77
2022/09/26 07:25:46;;;;;;;5.07;1.77;;;;;;;10.15;80.66;100090.38;5034176;28;20489;-77
2022/09/26 07:28:12;;;;;;;4.35;1.80;;;;;;;10.13;79.93;100080.00;5039425;28;20021;-77
2022/09/26 07:30:37;;;;;;;3.42;1.60;;;;;;;10.16;79.92;100073.88;5040396;28;20052;-77
2022/09/26 07:33:04;;;;;;;2.83;1.60;;;;;;;10.16;79.50;100069.50;5046334;28;20484;-77
2022/09/26 07:35:32;;;;;;;5.57;1.48;;;;;;;10.21;79.39;100065.91;5052194;28;20033;-77
2022/09/26 07:37:58;;;;;;;3.08;1.60;;;;;;;10.21;80.20;100065.91;5046717;28;20119;-77
2022/09/26 07:40:24;;;;;;;5.30;1.67;;;;;;;10.21;79.53;100073.69;5044232;28;20108;-77
2022/09/26 07:42:51;;;;;;;4.25;1.60;;;;;;;10.22;79.92;100067.59;5038879;28;20496;-77
2022/09/26 07:50:09;;;;;;;3.50;1.63;;;;;;;10.23;79.66;100077.94;5038352;28;20032;-77
2022/09/26 07:50:46;;;;;;;4.72;1.95;;;;;;;10.28;80.01;100072.56;5038683;28;20392;-77
2022/09/26 07:53:11;;;;;;;2.83;1.45;;;;;;;10.24;80.24;100066.63;5035571;28;20033;-77
2022/09/26 07:56:04;;;;;;;4.93;1.50;;;;;;;10.26;80.33;100074.34;5040139;28;20174;-77
2022/09/26 07:58:25;;;;;;;3.80;1.70;;;;;;;10.28;80.43;100065.63;5046059;28;20044;-77
2022/09/26 08:00:50;;;;;;;3.03;1.40;;;;;;;10.30;80.25;100062.94;5023491;28;20098;-77
2022/09/26 08:03:15;;;;;;;5.53;1.85;;;;;;;10.31;80.96;100062.03;5036660;28;20037;-77
2022/09/26 08:05:41;;;;;;;4.72;1.80;;;;;;;10.33;80.48;100062.84;5038796;28;20029;-77
2022/09/26 08:08:07;;;;;;;2.40;1.52;;;;;;;10.35;80.21;100066.22;5034985;28;20056;-77
2022/09/26 08:10:33;;;;;;;3.47;1.70;;;;;;;10.37;80.60;100056.63;5037389;28;20041;-77
2022/09/26 08:13:00;;;;;;;2.70;1.33;;;;;;;10.40;80.47;100045.28;5041820;28;20029;-77
2022/09/26 08:15:26;;;;;;;8.07;2.30;;;;;;;10.41;80.17;100041.78;5039364;28;20033;-77
2022/09/26 08:17:51;;;;;;;2.85;1.48;;;;;;;10.44;80.59;100044.28;5034122;28;20021;-76
2022/09/26 08:20:17;;;;;;;3.03;1.50;;;;;;;10.46;80.75;100032.91;5039234;28;20028;-76
2022/09/26 08:22:42;;;;;;;3.28;1.45;;;;;;;10.48;80.45;100027.66;5044960;28;20021;-77
2022/09/26 08:25:08;;;;;;;3.58;1.70;;;;;;;10.48;81.25;100023.28;5039329;28;20033;-77
2022/09/26 08:27:34;;;;;;;3.55;1.70;;;;;;;10.51;80.25;100026.66;5039362;28;20025;-76
2022/09/26 08:30:00;;;;;;;3.13;1.60;;;;;;;10.53;80.16;100030.06;5039743;28;20024;-77
2022/09/26 08:32:26;;;;;;;5.70;1.70;;;;;;;10.54;80.74;100029.16;5039362;28;20063;-76
2022/09/26 08:34:52;;;;;;;4.25;1.60;;;;;;;10.55;80.31;100023.88;5035993;28;20480;-77
2022/09/26 08:37:19;;;;;;;4.13;1.55;;;;;;;10.55;80.42;100018.69;5040617;28;20057;-82
2022/09/26 08:39:45;;;;;;;3.58;1.75;;;;;;;10.56;80.70;100015.19;5038872;28;20384;-77
2022/09/26 08:42:14;;;;;;;4.35;1.60;;;;;;;10.54;81.04;100010.97;5038017;28;20151;-78
2022/09/26 08:46:20;;;;;;;3.67;1.55;;;;;;;10.53;81.18;100014.47;5040637;28;20042;-77
2022/09/26 08:48:04;;;;;;;4.13;1.63;;;;;;;10.48;81.23;100005.06;5040409;28;20033;-77
2022/09/26 08:50:40;;;;;;;5.45;1.65;;;;;;;10.47;81.37;100016.38;5039860;28;20038;-76
2022/09/26 08:53:14;;;;;;;4.15;1.58;;;;;;;10.52;81.06;100008.41;5041808;28;20389;-76
2022/09/26 08:55:43;;;;;;;6.25;2.15;;;;;;;10.54;81.15;100008.34;5040586;28;20041;-76
2022/09/26 08:58:17;;;;;;;4.57;1.60;;;;;;;10.61;80.44;100017.59;5040557;28;20250;-77
2022/09/26 09:00:44;;;;;;;5.53;1.65;;;;;;;10.65;81.43;100006.16;5036649;28;20056;-76
2022/09/26 09:03:16;;;;;;;3.13;1.67;;;;;;;10.69;81.49;100012.09;5040115;28;20033;-77
2022/09/26 09:05:57;;;;;;;4.40;1.58;;;;;;;10.72;81.15;100004.16;5037508;28;20033;-76
2022/09/26 09:08:29;;;;;;;3.05;1.65;;;;;;;10.75;80.82;99999.72;5038625;28;20588;-78
2022/09/26 09:11:29;;;;;;;4.25;1.70;;;;;;;10.78;80.97;99999.56;5039900;28;20075;-77
2022/09/26 09:14:19;;;;;;;4.15;1.60;;;;;;;10.82;80.72;99999.44;5038644;28;20060;-77
2022/09/26 09:17:12;;;;;;;4.82;1.52;;;;;;;10.86;80.52;99996.66;5022796;28;20032;-77
2022/09/26 09:19:49;;;;;;;3.50;1.80;;;;;;;10.87;80.86;99992.31;5039928;28;20052;-77
2022/09/26 09:22:25;;;;;;;4.80;1.70;;;;;;;10.88;80.83;99996.59;5039764;28;20762;-77
2022/09/26 09:25:04;;;;;;;3.90;1.70;;;;;;;10.88;82.00;99994.00;5038246;28;20037;-77
2022/09/26 09:28:14;;;;;;;4.55;1.60;;;;;;;10.88;82.08;99992.22;5040164;28;20037;-76
2022/09/26 09:30:44;;;;;;;3.55;1.80;;;;;;;10.85;83.53;99983.72;4978166;28;20824;-76
2022/09/26 09:33:15;;;;;;;4.65;1.52;;;;;;;10.82;84.22;99966.47;5039790;28;20143;-77
2022/09/26 09:35:46;;;;;;;3.92;1.60;;;;;;;10.82;84.01;99963.03;5039421;28;20037;-77
2022/09/26 09:38:17;;;;;;;6.05;1.80;;;;;;;10.80;84.39;99954.44;5040920;28;20024;-76
2022/09/26 09:41:01;;;;;;;4.60;2.03;;;;;;;10.80;84.79;99950.09;5036006;28;20033;-77
2022/09/26 09:43:46;;;;;;;4.30;1.67;;;;;;;10.90;85.20;99950.56;5037610;28;20060;-76
2022/09/26 09:46:17;;;;;;;5.72;1.75;;;;;;;10.95;84.89;99948.59;5041462;28;20123;-76
2022/09/26 09:48:46;;;;;;;5.07;2.08;;;;;;;10.99;84.67;99931.94;5038486;28;20032;-77
2022/09/26 09:51:34;;;;;;;5.20;2.00;;;;;;;11.00;85.06;99925.81;5035578;28;20064;-76
2022/09/26 09:54:33;;;;;;;4.95;1.88;;;;;;;11.05;85.07;99923.88;5040037;28;20028;-77
2022/09/26 09:57:07;;;;;;;4.47;2.03;;;;;;;11.08;85.61;99917.69;5040011;28;20032;-77
2022/09/26 09:59:57;;;;;;;3.05;1.83;;;;;;;11.15;85.60;99913.91;5042454;28;20043;-77
2022/09/26 10:02:46;;;;;;;3.53;1.88;;;;;;;11.21;85.39;99903.22;5035947;28;20927;-77
2022/09/26 10:05:19;;;;;;;5.50;1.95;;;;;;;11.21;85.05;99902.38;5040063;28;20840;-76
2022/09/26 10:07:46;;;;;;;5.10;2.13;;;;;;;11.24;84.56;99897.06;5038572;28;20068;-76
2022/09/26 10:10:19;;;;;;;4.00;2.03;;;;;;;11.26;84.83;99889.16;5041571;28;20068;-77
2022/09/26 10:12:47;;;;;;;3.90;2.10;;;;;;;11.25;85.46;99880.53;5021226;28;20041;-76
2022/09/26 10:15:26;;;;;;;4.78;2.10;;;;;;;11.26;84.95;99879.63;5038948;28;20531;-76
2022/09/26 10:18:06;;;;;;;4.80;1.83;;;;;;;11.26;84.82;99873.53;5037180;28;20032;-76
2022/09/26 10:20:41;;;;;;;5.72;2.08;;;;;;;11.23;85.59;99872.75;5038533;28;20108;-77
2022/09/26 10:23:18;;;;;;;5.70;1.90;;;;;;;11.25;85.42;99864.91;5036467;28;20033;-76
2022/09/26 10:25:48;;;;;;;5.13;1.92;;;;;;;11.27;86.15;99863.06;5040918;28;20522;-76
2022/09/26 10:28:25;;;;;;;5.03;1.90;;;;;;;11.27;85.08;99857.88;5039258;28;20147;-77
2022/09/26 10:30:53;;;;;;;4.35;1.88;;;;;;;11.25;84.83;99862.28;5039080;28;20032;-76
2022/09/26 10:33:28;;;;;;;4.32;1.90;;;;;;;11.24;84.63;99864.03;5040160;28;20128;-76
2022/09/26 10:36:00;;;;;;;4.47;1.92;;;;;;;11.27;85.05;99860.47;5034896;28;20029;-76
2022/09/26 10:38:26;;;;;;;4.20;1.98;;;;;;;11.27;85.18;99859.63;5041502;28;20175;-77
2022/09/26 10:41:02;;;;;;;5.10;1.98;;;;;;;11.26;85.56;99853.56;5038940;28;20124;-77
2022/09/26 10:43:36;;;;;;;4.32;1.95;;;;;;;11.25;85.44;99857.09;5037581;28;20032;-77
2022/09/26 10:46:08;;;;;;;6.32;2.10;;;;;;;11.27;84.68;99842.25;5035391;28;20476;-76
2022/09/26 10:48:49;;;;;;;4.25;2.00;;;;;;;11.26;85.05;99826.69;5037202;28;20056;-76
2022/09/26 10:51:22;;;;;;;5.20;1.88;;;;;;;11.23;85.39;99832.88;5037766;28;20043;-76
2022/09/26 10:53:51;;;;;;;2.97;1.92;;;;;;;11.18;85.69;99840.03;5040634;28;20083;-76
2022/09/26 10:56:25;;;;;;;3.40;1.90;;;;;;;11.16;86.14;99836.66;5037648;28;20252;-76
2022/09/26 10:58:56;;;;;;;5.68;1.73;;;;;;;11.15;85.64;99835.81;5039817;28;20047;-77
2022/09/26 11:01:28;;;;;;;4.63;2.08;;;;;;;11.11;86.88;99833.41;5039441;28;20033;-76
2022/09/26 11:04:08;;;;;;;3.80;1.80;;;;;;;11.07;86.73;99830.97;5023546;28;20121;-77
2022/09/26 11:06:39;;;;;;;3.50;1.90;;;;;;;11.06;87.80;99824.06;5040692;28;20053;-76
2022/09/26 11:09:05;;;;;;;6.13;2.28;;;;;;;11.04;87.52;99820.69;5037579;28;20052;-77
2022/09/26 11:11:35;;;;;;;3.97;1.80;;;;;;;11.05;87.41;99824.09;5023017;28;20376;-77
2022/09/26 11:14:02;;;;;;;4.45;1.75;;;;;;;11.05;87.00;99814.56;5040928;28;20035;-77
2022/09/26 11:16:36;;;;;;;5.88;2.20;;;;;;;11.02;87.08;99812.09;5041516;28;20052;-76
2022/09/26 11:19:16;;;;;;;3.40;1.80;;;;;;;11.05;87.59;99809.34;5040679;28;20400;-76
2022/09/26 11:22:36;;;;;;;4.88;2.05;;;;;;;11.05;87.96;99811.09;5035936;28;20507;-76
2022/09/26 11:25:09;;;;;;;7.47;2.20;;;;;;;11.05;87.23;99814.56;4996526;28;20129;-77
2022/09/26 11:27:49;;;;;;;6.13;2.10;;;;;;;11.05;87.85;99806.75;5039477;28;20050;-76
2022/09/26 11:30:19;;;;;;;5.75;2.13;;;;;;;11.08;88.41;99811.84;5042390;28;20040;-76
2022/09/26 11:32:57;;;;;;;5.00;2.20;;;;;;;11.09;88.43;99804.84;5039300;28;20040;-77
2022/09/26 11:35:32;;;;;;;4.70;2.05;;;;;;;11.06;88.67;99795.44;5035118;28;20123;-76
2022/09/26 11:38:22;;;;;;;4.43;1.83;;;;;;;11.02;89.01;99801.69;5038921;28;20052;-77
2022/09/26 11:41:37;;;;;;;4.18;1.85;;;;;;;10.99;88.12;99793.16;5038099;28;20728;-76
2022/09/26 11:44:29;;;;;;;5.22;2.05;;;;;;;10.93;89.04;99787.31;5037357;28;20033;-76
2022/09/26 11:47:12;;;;;;;;;;;;;;;10.95;87.08;99802.03;5040099;28;20029;-79
2022/09/26 11:49:59;;;;;;;4.38;1.88;;;;;;;10.88;88.75;99791.88;5042684;28;19923;-77
2022/09/26 11:52:34;;;;;;;5.35;1.95;;;;;;;10.87;89.00;99795.38;5038615;28;20044;-76
2022/09/26 11:55:23;;;;;;;5.57;2.00;;;;;;;10.86;89.76;99787.66;5038648;28;20511;-77
2022/09/26 11:58:05;;;;;;;3.88;1.70;;;;;;;10.85;89.50;99785.97;5040423;28;20039;-76
2022/09/26 12:00:45;;;;;;;3.20;1.98;;;;;;;10.87;89.42;99778.94;5039931;28;20458;-77